createdAt,value
2022-08-18T00:01:18.969Z,62.33
2022-08-18T00:03:55.598Z,63.33
2022-08-18T00:06:28.269Z,61.28
2022-08-18T00:08:55.576Z,64.70
2022-08-18T00:11:23.921Z,62.85
2022-08-18T00:13:50.908Z,64.88
2022-08-18T00:16:17.866Z,63.85
2022-08-18T00:18:45.196Z,63.67
2022-08-18T00:21:12.224Z,65.10
2022-08-18T00:23:39.293Z,65.15
2022-08-18T00:26:06.451Z,63.30
2022-08-18T00:28:33.363Z,63.25
2022-08-18T00:31:00.732Z,64.30
2022-08-18T00:33:27.996Z,65.38
2022-08-18T00:35:54.972Z,71.22
2022-08-18T00:38:24.743Z,70.65
2022-08-18T00:40:54.323Z,72.25
2022-08-18T00:43:39.879Z,70.90
2022-08-18T00:46:09.149Z,62.72
2022-08-18T00:48:36.177Z,62.72
2022-08-18T00:51:08.799Z,65.25
2022-08-18T00:53:45.762Z,70.28
2022-08-18T00:56:22.389Z,73.78
2022-08-18T00:58:56.341Z,74.47
2022-08-18T01:01:26.320Z,70.22
2022-08-18T01:03:58.615Z,65.88
2022-08-18T01:06:32.624Z,66.63
2022-08-18T01:08:59.998Z,66.85
2022-08-18T01:11:28.655Z,67.18
2022-08-18T01:13:55.888Z,65.00
2022-08-18T01:16:53.167Z,66.55
2022-08-18T01:19:44.720Z,64.28
2022-08-18T01:22:23.549Z,65.75
2022-08-18T01:25:10.565Z,64.85
2022-08-18T01:27:37.772Z,66.03
2022-08-18T01:30:10.648Z,63.05
2022-08-18T01:32:38.736Z,60.92
2022-08-18T01:35:08.964Z,61.47
2022-08-18T01:37:36.488Z,62.72
2022-08-18T01:41:23.600Z,67.10
2022-08-18T01:42:56.624Z,65.35
2022-08-18T01:45:23.601Z,65.13
2022-08-18T01:47:50.759Z,64.45
2022-08-18T01:50:18.313Z,61.80
2022-08-18T01:52:45.461Z,63.58
2022-08-18T01:55:12.382Z,61.00
2022-08-18T01:57:45.257Z,61.97
2022-08-18T02:00:17.869Z,59.00
2022-08-18T02:02:45.025Z,60.92
2022-08-18T02:05:18.455Z,57.28
2022-08-18T02:07:45.682Z,63.70
2022-08-18T02:10:16.259Z,65.30
2022-08-18T02:12:44.122Z,60.65
2022-08-18T02:15:12.122Z,62.45
2022-08-18T02:17:40.428Z,57.03
2022-08-18T02:20:09.001Z,58.08
2022-08-18T02:22:36.600Z,56.22
2022-08-18T02:25:04.142Z,60.13
2022-08-18T02:27:34.420Z,65.32
2022-08-18T02:30:02.364Z,65.35
2022-08-18T02:32:29.500Z,67.25
2022-08-18T02:34:56.491Z,64.82
2022-08-18T02:37:23.385Z,66.22
2022-08-18T02:39:50.572Z,62.33
2022-08-18T02:42:17.960Z,57.50
2022-08-18T02:44:45.168Z,58.90
2022-08-18T02:47:12.106Z,61.45
2022-08-18T02:49:39.631Z,66.38
2022-08-18T02:52:06.686Z,62.65
2022-08-18T02:54:33.540Z,58.45
2022-08-18T02:57:00.411Z,53.28
2022-08-18T02:59:27.992Z,66.05
2022-08-18T03:01:59.041Z,68.93
2022-08-18T03:04:29.430Z,71.47
2022-08-18T03:06:59.876Z,73.03
2022-08-18T03:09:27.475Z,74.72
2022-08-18T03:11:54.721Z,76.72
2022-08-18T03:14:21.809Z,72.65
2022-08-18T03:16:54.804Z,76.30
2022-08-18T03:19:31.948Z,79.47
2022-08-18T03:22:03.261Z,81.05
2022-08-18T03:24:32.262Z,80.35
2022-08-18T03:27:01.673Z,82.78
2022-08-18T03:29:32.348Z,80.85
2022-08-18T03:32:03.737Z,80.82
2022-08-18T03:34:31.650Z,79.40
2022-08-18T03:36:58.856Z,79.90
2022-08-18T03:39:27.889Z,79.28
2022-08-18T03:41:58.070Z,82.78
2022-08-18T03:44:30.567Z,77.45
2022-08-18T03:46:57.783Z,80.60
2022-08-18T03:49:26.165Z,77.43
2022-08-18T03:51:53.106Z,75.95
2022-08-18T03:54:19.950Z,75.07
2022-08-18T03:56:49.365Z,72.95
2022-08-18T03:59:23.991Z,74.90
2022-08-18T04:01:52.422Z,76.30
2022-08-18T04:04:25.040Z,78.70
2022-08-18T04:06:58.754Z,77.55
2022-08-18T04:09:28.530Z,77.50
2022-08-18T04:11:56.367Z,77.10
2022-08-18T04:14:25.087Z,80.28
2022-08-18T04:16:52.024Z,79.43
2022-08-18T04:19:26.187Z,77.97
2022-08-18T04:21:56.296Z,78.60
2022-08-18T04:24:23.319Z,77.07
2022-08-18T04:26:50.428Z,76.97
2022-08-18T04:29:20.489Z,78.97
2022-08-18T04:31:47.851Z,76.13
2022-08-18T04:34:15.695Z,76.65
2022-08-18T04:36:43.516Z,78.82
2022-08-18T04:39:11.955Z,77.10
2022-08-18T04:41:41.109Z,75.63
2022-08-18T04:44:09.756Z,78.13
2022-08-18T04:46:40.587Z,79.72
2022-08-18T04:49:09.278Z,78.50
2022-08-18T04:52:26.764Z,79.72
2022-08-18T04:54:27.813Z,81.53
2022-08-18T04:56:55.161Z,81.13
2022-08-18T04:59:22.224Z,83.97
2022-08-18T05:01:49.240Z,80.30
2022-08-18T05:04:17.464Z,82.07
2022-08-18T05:06:45.695Z,79.75
2022-08-18T05:09:16.925Z,83.22
2022-08-18T05:11:50.958Z,83.50
2022-08-18T05:14:18.814Z,80.43
2022-08-18T05:16:48.527Z,82.57
2022-08-18T05:19:26.137Z,81.07
2022-08-18T05:22:00.159Z,79.72
2022-08-18T05:24:34.075Z,81.05
2022-08-18T05:27:04.893Z,80.57
2022-08-18T05:29:41.538Z,77.80
2022-08-18T05:32:41.805Z,66.00
2022-08-18T05:35:04.752Z,58.15
2022-08-18T05:37:39.783Z,66.40
2022-08-18T05:40:11.446Z,81.63
2022-08-18T05:42:40.296Z,88.20
2022-08-18T05:45:11.935Z,83.63
2022-08-18T05:47:39.351Z,84.43
2022-08-18T05:50:11.733Z,85.50
2022-08-18T05:52:54.073Z,84.47
2022-08-18T05:56:03.890Z,81.13
2022-08-18T05:58:37.934Z,81.95
2022-08-18T06:01:14.386Z,82.07
2022-08-18T06:03:49.097Z,84.75
2022-08-18T06:06:20.233Z,84.35
2022-08-18T06:09:15.368Z,86.38
2022-08-18T06:11:43.399Z,84.30
2022-08-18T06:14:10.887Z,85.57
2022-08-18T06:16:46.839Z,86.70
2022-08-18T06:19:39.131Z,82.43
2022-08-18T06:22:27.258Z,85.03
2022-08-18T06:25:01.594Z,82.07
2022-08-18T06:27:50.016Z,80.00
2022-08-18T06:30:24.047Z,79.00
2022-08-18T06:33:09.171Z,82.78
2022-08-18T06:35:50.651Z,81.75
2022-08-18T06:38:38.606Z,85.05
2022-08-18T06:41:37.977Z,81.13
2022-08-18T06:44:30.063Z,78.20
2022-08-18T06:47:05.572Z,77.97
2022-08-18T06:49:51.404Z,78.72
2022-08-18T06:52:22.425Z,76.75
2022-08-18T06:54:51.395Z,77.35
2022-08-18T06:57:37.155Z,74.97
2022-08-18T07:00:08.168Z,73.90
2022-08-18T07:02:40.483Z,73.20
2022-08-18T07:05:29.067Z,72.53
2022-08-18T07:08:29.361Z,72.18
2022-08-18T07:10:56.596Z,74.43
2022-08-18T07:13:27.222Z,75.47
2022-08-18T07:16:03.103Z,77.35
2022-08-18T07:18:32.809Z,76.82
2022-08-18T07:21:01.635Z,73.05
2022-08-18T07:23:28.398Z,71.07
2022-08-18T07:26:15.800Z,67.85
2022-08-18T07:28:48.034Z,69.88
2022-08-18T07:31:38.169Z,68.70
2022-08-18T07:34:19.370Z,70.53
2022-08-18T07:37:12.588Z,70.88
2022-08-18T07:39:50.727Z,70.38
2022-08-18T07:43:14.804Z,70.32
2022-08-18T07:45:44.818Z,73.10
2022-08-18T07:48:37.520Z,70.78
2022-08-18T07:51:36.963Z,71.90
2022-08-18T07:54:48.854Z,71.60
2022-08-18T07:57:27.184Z,69.32
2022-08-18T08:00:58.752Z,64.68
2022-08-18T08:03:37.685Z,66.15
2022-08-18T08:06:27.389Z,68.60
2022-08-18T08:09:21.153Z,67.95
2022-08-18T08:11:53.121Z,65.90
2022-08-18T08:14:32.597Z,65.47
2022-08-18T08:17:28.959Z,62.67
2022-08-18T08:20:20.710Z,61.80
2022-08-18T08:23:02.244Z,63.15
2022-08-18T08:25:46.186Z,63.75
2022-08-18T08:28:42.824Z,59.45
2022-08-18T08:31:39.359Z,58.28
2022-08-18T08:34:44.525Z,59.20
2022-08-18T08:37:19.792Z,57.17
2022-08-18T08:40:05.999Z,60.25
2022-08-18T08:43:29.851Z,63.30
2022-08-18T08:46:25.816Z,64.78
2022-08-18T08:49:08.085Z,60.63
2022-08-18T08:51:37.286Z,61.17
2022-08-18T08:54:16.252Z,60.28
2022-08-18T08:56:46.958Z,61.67
2022-08-18T08:59:16.752Z,60.10
2022-08-18T09:02:05.262Z,59.47
2022-08-18T09:04:54.862Z,55.25
2022-08-18T09:08:03.183Z,55.30
2022-08-18T09:10:44.881Z,53.20
2022-08-18T09:13:53.303Z,56.38
2022-08-18T09:16:38.490Z,53.50
2022-08-18T09:19:29.718Z,52.20
2022-08-18T09:22:18.195Z,53.67
2022-08-18T09:24:51.240Z,51.83
2022-08-18T09:28:09.435Z,53.72
2022-08-18T09:30:41.091Z,51.58
2022-08-18T09:33:18.920Z,53.42
2022-08-18T09:35:54.665Z,54.67
2022-08-18T09:38:45.108Z,53.28
2022-08-18T09:41:34.210Z,54.42
2022-08-18T09:47:01.388Z,51.92
2022-08-18T09:49:30.442Z,53.03
2022-08-18T09:50:37.283Z,53.95
2022-08-18T09:52:02.256Z,49.75
2022-08-18T09:54:31.771Z,50.80
2022-08-18T09:57:05.131Z,52.78
2022-08-18T09:59:32.231Z,52.78
2022-08-18T10:02:03.601Z,51.38
2022-08-18T10:04:36.854Z,52.90
2022-08-18T10:11:00.201Z,53.95
2022-08-18T10:13:49.535Z,51.10
2022-08-18T10:16:19.594Z,53.03
2022-08-18T10:19:05.107Z,50.30
2022-08-18T10:21:55.992Z,51.35
2022-08-18T10:24:39.640Z,51.20
2022-08-18T10:27:13.561Z,48.47
2022-08-18T10:29:49.440Z,48.97
2022-08-18T10:32:16.295Z,47.88
2022-08-18T10:34:52.494Z,49.30
2022-08-18T10:37:25.898Z,48.25
2022-08-18T10:39:59.479Z,48.28
2022-08-18T10:42:34.407Z,48.33
2022-08-18T10:45:22.132Z,45.53
2022-08-18T10:48:00.399Z,44.85
2022-08-18T10:50:29.468Z,44.53
2022-08-18T10:53:38.844Z,43.00
2022-08-18T10:56:26.878Z,42.25
2022-08-18T10:59:05.014Z,41.45
2022-08-18T11:01:38.182Z,40.40
2022-08-18T11:04:34.118Z,41.03
2022-08-18T11:07:13.113Z,39.35
2022-08-18T11:09:42.152Z,39.40
2022-08-18T11:15:22.183Z,37.17
2022-08-18T11:18:12.183Z,33.90
2022-08-18T11:20:43.253Z,36.95
2022-08-18T11:23:16.834Z,35.40
2022-08-18T11:25:45.105Z,33.65
2022-08-18T11:28:30.212Z,34.88
2022-08-18T11:30:59.269Z,35.45
2022-08-18T11:33:27.186Z,33.65
2022-08-18T11:35:58.244Z,36.05
2022-08-18T11:38:29.486Z,33.13
2022-08-18T11:41:13.731Z,36.70
2022-08-18T11:43:43.065Z,33.28
2022-08-18T11:46:38.931Z,34.92
2022-08-18T11:52:30.934Z,29.38
2022-08-18T12:00:46.302Z,27.90
2022-08-18T12:03:35.294Z,29.02
2022-08-18T12:09:04.333Z,26.73
2022-08-18T12:11:35.645Z,26.55
2022-08-18T12:14:31.819Z,25.10
2022-08-18T12:16:55.853Z,30.48
2022-08-18T12:19:24.222Z,29.23
2022-08-18T12:21:58.989Z,27.23
2022-08-18T12:24:34.621Z,26.70
2022-08-18T12:29:52.965Z,30.05
2022-08-18T12:32:48.834Z,28.92
2022-08-18T12:35:11.631Z,27.85
2022-08-18T12:37:59.051Z,28.63
2022-08-18T12:40:26.779Z,29.73
2022-08-18T12:42:55.820Z,27.77
2022-08-18T12:45:24.605Z,27.90
2022-08-18T12:47:51.773Z,28.40
2022-08-18T12:50:19.955Z,28.75
2022-08-18T12:52:46.991Z,26.60
2022-08-18T12:55:21.439Z,29.45
2022-08-18T12:57:52.040Z,29.15
2022-08-18T13:00:27.974Z,28.45
2022-08-18T13:02:57.324Z,32.00
2022-08-18T13:05:44.397Z,30.95
2022-08-18T13:08:27.739Z,30.67
2022-08-18T13:11:19.853Z,28.38
2022-08-18T13:13:52.679Z,30.65
2022-08-18T13:16:38.706Z,28.58
2022-08-18T13:19:07.868Z,29.27
2022-08-18T13:21:41.131Z,27.38
2022-08-18T13:24:09.336Z,28.02
2022-08-18T13:26:39.280Z,29.38
2022-08-18T13:29:10.159Z,27.67
2022-08-18T13:31:38.164Z,29.50
2022-08-18T13:34:07.746Z,29.48
2022-08-18T13:36:46.178Z,30.65
2022-08-18T13:39:19.069Z,29.48
2022-08-18T13:41:48.251Z,30.15
2022-08-18T13:44:18.557Z,30.50
2022-08-18T13:46:47.451Z,28.90
2022-08-18T13:49:23.863Z,27.90
2022-08-18T13:54:35.081Z,27.45
2022-08-18T13:57:03.812Z,30.13
2022-08-18T13:59:33.211Z,29.65
2022-08-18T14:02:05.869Z,31.33
2022-08-18T14:04:38.051Z,27.73
2022-08-18T14:07:10.368Z,28.63
2022-08-18T14:09:38.906Z,29.70
2022-08-18T14:12:22.760Z,30.25
2022-08-18T14:14:52.761Z,30.67
2022-08-18T14:17:22.218Z,26.48
2022-08-18T14:20:10.529Z,27.10
2022-08-18T14:23:00.432Z,29.67
2022-08-18T14:25:46.574Z,30.13
2022-08-18T14:28:13.930Z,28.70
2022-08-18T14:30:54.175Z,26.88
2022-08-18T14:33:29.261Z,25.00
2022-08-18T14:36:10.182Z,26.38
2022-08-18T14:38:38.344Z,26.35
2022-08-18T14:41:07.239Z,27.90
2022-08-18T14:43:50.830Z,24.77
2022-08-18T14:46:23.873Z,25.40
2022-08-18T14:48:57.411Z,25.45
2022-08-18T14:51:27.119Z,25.23
2022-08-18T14:53:54.529Z,26.65
2022-08-18T14:56:24.377Z,25.30
2022-08-18T14:58:55.848Z,26.48
2022-08-18T15:01:23.374Z,26.38
2022-08-18T15:03:50.796Z,23.50
2022-08-18T15:06:22.906Z,25.58
2022-08-18T15:08:54.631Z,25.40
2022-08-18T15:11:24.342Z,25.98
2022-08-18T15:13:51.674Z,25.95
2022-08-18T15:16:31.640Z,25.23
2022-08-18T15:18:59.388Z,24.20
2022-08-18T15:21:46.742Z,24.52
2022-08-18T15:24:39.660Z,22.77
2022-08-18T15:27:10.290Z,23.98
2022-08-18T15:29:41.604Z,24.15
2022-08-18T15:32:15.234Z,20.90
2022-08-18T15:37:15.879Z,21.13
2022-08-18T15:39:47.336Z,20.30
2022-08-18T15:42:23.153Z,21.00
2022-08-18T15:44:50.306Z,20.05
2022-08-18T15:47:20.926Z,23.15
2022-08-18T15:49:48.658Z,20.05
2022-08-18T15:52:19.761Z,20.30
2022-08-18T15:54:50.383Z,20.33
2022-08-18T15:57:35.347Z,21.40
2022-08-18T16:00:05.739Z,21.27
2022-08-18T16:02:34.617Z,23.08
2022-08-18T16:05:10.440Z,22.52
2022-08-18T16:07:45.181Z,22.98
2022-08-18T16:10:13.447Z,25.60
2022-08-18T16:12:45.820Z,22.80
2022-08-18T16:15:15.467Z,25.65
2022-08-18T16:17:52.086Z,28.05
2022-08-18T16:20:20.490Z,27.60
2022-08-18T16:22:48.174Z,26.85
2022-08-18T16:25:16.476Z,29.92
2022-08-18T16:27:44.529Z,28.90
2022-08-18T16:30:18.108Z,28.60
2022-08-18T16:32:45.278Z,29.00
2022-08-18T16:35:12.412Z,27.77
2022-08-18T16:37:39.392Z,28.70
2022-08-18T16:40:06.804Z,29.58
2022-08-18T16:42:34.686Z,27.83
2022-08-18T16:45:02.578Z,28.17
2022-08-18T16:47:29.858Z,27.85
2022-08-18T16:49:59.805Z,25.40
2022-08-18T16:52:27.333Z,25.80
2022-08-18T16:54:57.611Z,27.45
2022-08-18T16:57:53.976Z,25.95
2022-08-18T17:00:41.946Z,27.98
2022-08-18T17:03:27.882Z,28.70
2022-08-18T17:06:06.999Z,26.77
2022-08-18T17:08:35.932Z,29.83
2022-08-18T17:11:04.840Z,26.02
2022-08-18T17:13:32.121Z,26.80
2022-08-18T17:15:59.052Z,26.27
2022-08-18T17:18:26.154Z,25.73
2022-08-18T17:20:55.465Z,25.85
2022-08-18T17:23:22.573Z,23.20
2022-08-18T17:25:49.937Z,24.95
2022-08-18T17:28:19.309Z,23.38
2022-08-18T17:30:50.181Z,23.77
2022-08-18T17:33:31.721Z,23.55
2022-08-18T17:36:01.532Z,23.02
2022-08-18T17:38:44.088Z,24.20
2022-08-18T17:41:13.746Z,22.38
2022-08-18T17:46:31.398Z,22.60
2022-08-18T17:49:04.647Z,20.88
2022-08-18T17:51:44.420Z,22.08
2022-08-18T17:54:15.189Z,22.38
2022-08-18T17:57:01.467Z,20.73
2022-08-18T18:00:08.132Z,20.58
2022-08-18T18:02:35.195Z,20.63
2022-08-18T18:05:26.420Z,20.52
2022-08-18T18:07:57.079Z,19.30
2022-08-18T18:11:05.425Z,19.20
2022-08-18T18:13:34.526Z,19.30
2022-08-18T18:16:23.597Z,19.67
2022-08-18T18:19:01.593Z,19.60
2022-08-18T18:22:01.428Z,19.95
2022-08-18T18:24:23.547Z,17.42
2022-08-18T18:26:52.193Z,18.70
2022-08-18T18:29:38.041Z,19.00
2022-08-18T18:32:31.430Z,18.27
2022-08-18T18:35:28.685Z,18.15
2022-08-18T18:37:59.621Z,16.40
2022-08-18T18:40:34.971Z,17.25
2022-08-18T18:43:21.282Z,17.70
2022-08-18T18:46:10.534Z,19.10
2022-08-18T18:48:59.168Z,19.50
2022-08-18T18:51:35.919Z,18.00
2022-08-18T18:54:35.229Z,18.42
2022-08-18T18:57:10.960Z,18.27
2022-08-18T19:00:09.452Z,18.30
2022-08-18T19:03:02.884Z,18.58
2022-08-18T19:08:06.595Z,19.38
2022-08-18T19:10:37.976Z,19.02
2022-08-18T19:13:24.877Z,19.35
2022-08-18T19:16:23.527Z,17.60
2022-08-18T19:19:35.493Z,44.28
2022-08-18T19:22:03.672Z,22.20
2022-08-18T19:24:38.809Z,34.13
2022-08-18T19:27:09.237Z,34.42
2022-08-18T19:29:41.397Z,40.65
2022-08-18T19:32:13.446Z,33.90
2022-08-18T19:34:51.552Z,22.83
2022-08-18T19:37:45.184Z,26.83
2022-08-18T19:40:17.567Z,20.95
2022-08-18T19:42:59.352Z,21.70
2022-08-18T19:45:35.574Z,21.95
2022-08-18T19:48:06.184Z,22.90
2022-08-18T19:50:47.729Z,20.38
2022-08-18T19:53:31.284Z,20.30
2022-08-18T19:56:04.774Z,20.35
2022-08-18T19:59:12.992Z,21.05
2022-08-18T20:01:35.610Z,20.60
2022-08-18T20:04:13.983Z,20.15
2022-08-18T20:07:03.858Z,20.02
2022-08-18T20:09:48.936Z,22.08
2022-08-18T20:12:42.959Z,21.02
2022-08-18T20:15:17.630Z,22.17
2022-08-18T20:18:04.097Z,24.60
2022-08-18T20:20:38.619Z,23.65
2022-08-18T20:23:33.937Z,22.70
2022-08-18T20:26:00.885Z,21.83
2022-08-18T20:28:39.014Z,21.77
2022-08-18T20:31:14.463Z,22.88
2022-08-18T20:34:04.140Z,21.60
2022-08-18T20:36:36.655Z,23.88
2022-08-18T20:39:32.586Z,22.65
2022-08-18T20:42:00.453Z,22.95
2022-08-18T20:47:48.307Z,22.52
2022-08-18T20:50:50.286Z,22.92
2022-08-18T20:53:41.609Z,22.13
2022-08-18T20:56:43.239Z,22.40
2022-08-18T20:59:43.776Z,23.15
2022-08-18T21:02:41.408Z,22.90
2022-08-18T21:05:18.360Z,23.25
2022-08-18T21:08:03.347Z,20.83
2022-08-18T21:10:31.704Z,22.35
2022-08-18T21:13:03.671Z,22.13
2022-08-18T21:15:48.433Z,22.33
2022-08-18T21:18:20.178Z,23.05
2022-08-18T21:20:49.879Z,23.48
2022-08-18T21:23:25.270Z,22.10
2022-08-18T21:25:57.956Z,23.23
2022-08-18T21:28:28.176Z,21.88
2022-08-18T21:31:43.230Z,18.98
2022-08-18T21:34:44.903Z,21.83
2022-08-18T21:37:14.287Z,22.80
2022-08-18T21:39:57.855Z,19.92
2022-08-18T21:42:28.031Z,19.08
2022-08-18T21:45:00.962Z,21.40
2022-08-18T21:47:33.832Z,21.08
2022-08-18T21:50:12.392Z,20.85
2022-08-18T21:52:51.177Z,20.85
2022-08-18T21:55:42.843Z,21.40
2022-08-18T21:58:18.339Z,20.88
2022-08-18T22:01:11.308Z,21.95
2022-08-18T22:03:59.575Z,20.95
2022-08-18T22:06:37.260Z,20.90
2022-08-18T22:09:33.456Z,21.77
2022-08-18T22:12:51.825Z,22.30
2022-08-18T22:15:28.556Z,21.42
2022-08-18T22:17:58.895Z,21.35
2022-08-18T22:20:43.094Z,23.08
2022-08-18T22:23:34.733Z,21.80
2022-08-18T22:26:16.729Z,21.75
2022-08-18T22:29:11.477Z,21.77
2022-08-18T22:31:43.019Z,23.05
2022-08-18T22:34:14.994Z,22.58
2022-08-18T22:36:54.102Z,22.17
2022-08-18T22:39:28.604Z,23.33
2022-08-18T22:41:55.684Z,23.25
2022-08-18T22:44:23.772Z,23.40
2022-08-18T22:46:51.142Z,22.17
2022-08-18T22:49:18.681Z,22.90
2022-08-18T22:51:48.443Z,22.55
2022-08-18T22:54:16.008Z,21.52
2022-08-18T22:56:53.916Z,25.17
2022-08-18T22:59:23.706Z,23.38
2022-08-18T23:01:51.205Z,24.15
2022-08-18T23:04:20.699Z,23.20
2022-08-18T23:06:56.591Z,23.73
2022-08-18T23:09:27.548Z,22.58
2022-08-18T23:12:00.590Z,23.63
2022-08-18T23:14:28.306Z,25.17
2022-08-18T23:16:55.046Z,23.80
2022-08-18T23:19:22.113Z,25.40
2022-08-18T23:21:49.217Z,23.13
2022-08-18T23:24:17.270Z,22.20
2022-08-18T23:26:44.295Z,23.70
2022-08-18T23:29:11.672Z,23.67
2022-08-18T23:31:40.693Z,24.35
2022-08-18T23:34:09.120Z,19.38
2022-08-18T23:36:41.288Z,16.80
2022-08-18T23:39:11.376Z,16.20
2022-08-18T23:41:38.723Z,17.60
2022-08-18T23:44:06.736Z,18.08
2022-08-18T23:46:34.356Z,17.65
2022-08-18T23:49:04.229Z,17.15
2022-08-18T23:51:34.699Z,17.88
2022-08-18T23:54:07.075Z,17.65
2022-08-18T23:56:34.528Z,19.13
2022-08-18T23:59:01.632Z,18.00
